Time;durP1;ratioP1;P1;durP2;ratioP2;P2;SDS_P1;SDS_P2;PMS_P1;PMS_P2;Temp;Humidity;BMP_temperature;BMP_pressure;BME280_temperature;BME280_humidity;BME280_pressure;Samples;Min_cycle;Max_cycle;Signal;HPM_P1;HPM_P2
2021/01/22 00:01:38;;;;;;;324.45;161.00;;;;;;;3.18;61.62;95361.19;4953249;28;20092;-85
2021/01/22 00:04:04;;;;;;;316.58;154.52;;;;;;;3.14;61.46;95348.84;4961446;28;20034;-84
2021/01/22 00:06:30;;;;;;;332.73;158.95;;;;;;;3.13;61.01;95349.84;4955904;28;20050;-84
2021/01/22 00:08:55;;;;;;;363.42;177.73;;;;;;;3.09;60.95;95348.56;4935574;29;20044;-85
2021/01/22 00:11:21;;;;;;;391.80;196.15;;;;;;;2.95;61.77;95348.34;4949690;29;20127;-85
2021/01/22 00:13:49;;;;;;;400.75;205.40;;;;;;;2.98;61.36;95342.88;4937974;29;20235;-84
2021/01/22 00:16:15;;;;;;;393.65;202.65;;;;;;;2.96;61.78;95342.25;4939915;29;20059;-85
2021/01/22 00:18:40;;;;;;;412.80;213.60;;;;;;;2.93;61.91;95329.75;4964099;23;20059;-85
2021/01/22 00:21:06;;;;;;;435.92;225.00;;;;;;;3.05;62.20;95337.03;4925976;29;20040;-85
2021/01/22 00:23:31;;;;;;;419.48;219.07;;;;;;;3.03;61.85;95338.97;4893275;29;20083;-85
2021/01/22 00:26:00;;;;;;;409.08;206.73;;;;;;;2.98;61.28;95326.66;4908984;29;20044;-85
2021/01/22 00:28:35;;;;;;;387.48;194.52;;;;;;;2.95;61.84;95322.66;4932306;29;20039;-85
2021/01/22 00:31:00;;;;;;;417.02;217.50;;;;;;;3.10;61.80;95345.84;4925940;29;20051;-84
2021/01/22 00:33:26;;;;;;;405.88;210.40;;;;;;;2.94;61.86;95335.69;4909604;29;20048;-86
2021/01/22 00:36:07;;;;;;;395.58;205.23;;;;;;;2.78;62.01;95323.75;4924415;29;20099;-85
2021/01/22 00:38:32;;;;;;;379.63;197.20;;;;;;;2.82;61.87;95342.97;4923246;29;20042;-85
2021/01/22 00:40:58;;;;;;;389.42;199.57;;;;;;;2.91;61.95;95347.06;4921957;29;20419;-85
2021/01/22 00:43:26;;;;;;;409.63;213.38;;;;;;;2.93;61.60;95349.50;4909351;29;20036;-85
2021/01/22 00:45:52;;;;;;;407.20;212.27;;;;;;;2.99;61.35;95357.31;4924960;29;20050;-85
2021/01/22 00:48:17;;;;;;;409.00;206.55;;;;;;;2.89;61.94;95349.03;4924958;29;20183;-85
2021/01/22 00:50:43;;;;;;;408.67;211.70;;;;;;;2.88;62.42;95347.44;4908657;29;20087;-86
2021/01/22 00:53:09;;;;;;;421.40;218.88;;;;;;;2.71;63.04;95343.38;4906612;29;20060;-86
2021/01/22 00:55:34;;;;;;;388.52;191.85;;;;;;;2.76;62.30;95335.94;4922868;29;20048;-86
2021/01/22 00:58:00;;;;;;;370.90;192.63;;;;;;;2.77;61.87;95329.88;4925617;29;20099;-85
2021/01/22 01:00:25;;;;;;;310.73;154.75;;;;;;;2.73;62.11;95338.84;4907790;29;20059;-85
2021/01/22 01:02:50;;;;;;;314.65;155.45;;;;;;;2.65;62.17;95323.50;4959844;23;20194;-86
2021/01/22 01:05:17;;;;;;;323.50;159.10;;;;;;;2.58;62.98;95318.25;4947297;28;20407;-85
2021/01/22 01:07:43;;;;;;;330.60;166.10;;;;;;;2.75;62.55;95316.38;4943669;29;20095;-86
2021/01/22 01:10:09;;;;;;;407.17;197.63;;;;;;;2.65;62.85;95300.41;4914662;29;20038;-86
2021/01/22 01:12:35;;;;;;;412.08;212.50;;;;;;;2.68;62.50;95311.13;4913625;29;20035;-86
2021/01/22 01:15:00;;;;;;;401.70;199.45;;;;;;;2.72;62.97;95320.09;4937880;29;20038;-86
2021/01/22 01:17:35;;;;;;;414.25;203.55;;;;;;;2.70;62.45;95316.88;4929978;29;20031;-86
2021/01/22 01:20:02;;;;;;;411.60;205.88;;;;;;;2.64;62.55;95297.03;4916019;29;20126;-86
2021/01/22 01:22:31;;;;;;;408.75;204.15;;;;;;;2.82;62.91;95317.31;4927405;29;20226;-86
2021/01/22 01:24:59;;;;;;;372.00;183.55;;;;;;;2.78;63.03;95295.50;4942304;28;20036;-85
2021/01/22 01:27:24;;;;;;;263.55;122.00;;;;;;;2.86;63.31;95308.28;4928523;29;20283;-85
2021/01/22 01:29:56;;;;;;;378.70;189.35;;;;;;;2.85;61.79;95291.25;4941133;29;20114;-85
2021/01/22 01:32:21;;;;;;;330.75;155.38;;;;;;;3.09;61.87;95312.59;4907460;29;20492;-84
2021/01/22 01:34:47;;;;;;;300.95;145.35;;;;;;;2.83;62.27;95306.06;4911068;29;20043;-85
2021/01/22 01:37:12;;;;;;;280.90;140.25;;;;;;;2.62;63.22;95295.63;4917334;29;20086;-85
2021/01/22 01:39:37;;;;;;;274.15;132.63;;;;;;;2.69;63.15;95297.31;4908858;29;20043;-85
2021/01/22 01:42:04;;;;;;;227.13;111.85;;;;;;;2.65;63.74;95292.69;4942984;28;20027;-85
2021/01/22 01:44:29;;;;;;;254.00;120.07;;;;;;;2.70;63.05;95303.25;4925021;29;20107;-85
2021/01/22 01:46:54;;;;;;;247.93;121.40;;;;;;;2.61;63.41;95294.81;4930399;29;20638;-84
2021/01/22 01:49:20;;;;;;;250.13;117.60;;;;;;;2.62;63.34;95290.47;4935529;29;20415;-86
2021/01/22 01:52:19;;;;;;;232.23;115.88;;;;;;;2.53;62.79;95281.22;4926581;23;20043;-86
2021/01/22 01:54:45;;;;;;;208.43;102.03;;;;;;;2.57;63.22;95267.06;4934399;29;20040;-85
2021/01/22 01:57:11;;;;;;;217.50;105.25;;;;;;;2.71;63.01;95269.69;4941541;29;20047;-85
2021/01/22 01:59:59;;;;;;;255.52;119.93;;;;;;;2.74;62.38;95252.34;4936379;29;20035;-85
2021/01/22 02:02:24;;;;;;;258.77;126.90;;;;;;;2.71;62.65;95258.63;4940160;29;20039;-84
2021/01/22 02:04:59;;;;;;;275.98;120.95;;;;;;;2.73;61.61;95261.81;4907721;29;20484;-85
2021/01/22 02:07:25;;;;;;;256.58;121.07;;;;;;;2.62;62.55;95257.09;4908964;29;20035;-86
2021/01/22 02:09:58;;;;;;;264.25;126.93;;;;;;;2.77;62.40;95283.63;4930243;29;20412;-86
2021/01/22 02:15:15;;;;;;;235.85;113.40;;;;;;;2.61;62.78;95251.19;4939871;29;20044;-85
2021/01/22 02:17:54;;;;;;;268.42;122.53;;;;;;;2.76;62.51;95266.59;4932180;29;20087;-86
2021/01/22 02:21:20;;;;;;;246.93;119.03;;;;;;;2.76;62.82;95261.47;4942308;29;20035;-85
2021/01/22 02:23:46;;;;;;;235.07;111.00;;;;;;;2.70;62.43;95272.44;4952746;29;20498;-86
2021/01/22 02:26:30;;;;;;;259.25;118.00;;;;;;;2.78;62.96;95277.53;4937035;29;20054;-85
2021/01/22 02:28:59;;;;;;;270.83;119.75;;;;;;;2.72;62.10;95280.75;4937983;29;20186;-85
2021/01/22 02:31:24;;;;;;;297.63;135.77;;;;;;;2.88;62.46;95280.66;4943477;29;20050;-85
2021/01/22 02:33:50;;;;;;;271.95;121.60;;;;;;;2.75;61.90;95275.28;4953604;29;20765;-86
2021/01/22 02:36:15;;;;;;;245.93;117.22;;;;;;;2.77;61.46;95275.94;4907724;29;20082;-85
2021/01/22 02:38:41;;;;;;;226.63;99.97;;;;;;;2.77;61.44;95268.22;4924004;29;20050;-85
2021/01/22 02:41:20;;;;;;;146.48;76.18;;;;;;;2.65;60.51;95275.53;4947959;29;20070;-85
2021/01/22 02:43:47;;;;;;;141.63;63.40;;;;;;;2.70;63.00;95275.00;4949414;29;20459;-85
2021/01/22 02:46:15;;;;;;;153.75;72.35;;;;;;;2.63;63.21;95261.28;4888124;29;20051;-85
2021/01/22 02:48:47;;;;;;;131.80;66.72;;;;;;;2.65;63.45;95246.50;4886819;29;20049;-85
2021/01/22 02:51:21;;;;;;;140.25;70.60;;;;;;;2.51;64.88;95235.19;4857516;29;20049;-86
2021/01/22 02:53:47;;;;;;;136.65;66.10;;;;;;;2.70;64.62;95257.03;4893576;29;20107;-84
2021/01/22 02:56:50;;;;;;;111.68;62.70;;;;;;;2.79;63.03;95260.34;4892860;29;20064;-85
2021/01/22 02:59:55;;;;;;;122.15;63.85;;;;;;;2.72;63.12;95260.22;4898780;29;20067;-85
2021/01/22 03:02:38;;;;;;;127.68;67.72;;;;;;;2.83;63.00;95270.09;4900523;29;20081;-85
2021/01/22 03:05:05;;;;;;;128.55;64.72;;;;;;;2.80;62.86;95262.75;4895101;29;20417;-85
2021/01/22 03:07:47;;;;;;;119.45;65.25;;;;;;;2.80;63.48;95272.22;4877574;29;20056;-85
2021/01/22 03:10:14;;;;;;;111.40;61.23;;;;;;;2.88;63.06;95275.50;4881994;29;20033;-86
2021/01/22 03:12:40;;;;;;;119.40;62.67;;;;;;;2.83;63.14;95272.66;4880924;29;20045;-85
2021/01/22 03:15:06;;;;;;;128.30;65.78;;;;;;;2.83;62.68;95277.81;4865417;29;20045;-85
2021/01/22 03:17:31;;;;;;;129.30;70.65;;;;;;;2.77;63.21;95281.06;4911058;29;20578;-85
2021/01/22 03:19:57;;;;;;;163.68;85.72;;;;;;;2.97;62.85;95277.06;4939572;29;20027;-85
2021/01/22 03:22:22;;;;;;;132.77;71.47;;;;;;;3.09;61.60;95274.03;4938295;29;20039;-85
2021/01/22 03:24:47;;;;;;;138.45;73.07;;;;;;;2.91;61.96;95277.72;4932355;29;20098;-86
2021/01/22 03:27:15;;;;;;;153.07;73.63;;;;;;;2.98;62.45;95268.38;4945450;29;20066;-85
2021/01/22 03:29:40;;;;;;;125.85;67.45;;;;;;;3.00;61.80;95279.28;4922026;29;20187;-85
2021/01/22 03:32:09;;;;;;;115.45;57.92;;;;;;;3.01;62.65;95274.94;4922808;29;20035;-85
2021/01/22 03:34:35;;;;;;;127.78;72.65;;;;;;;3.04;61.95;95278.91;4915782;29;20102;-86
2021/01/22 03:37:01;;;;;;;140.25;70.32;;;;;;;2.94;62.58;95272.25;4922158;29;20491;-85
2021/01/22 03:39:27;;;;;;;144.65;75.20;;;;;;;2.94;61.79;95269.69;4938247;29;20399;-85
2021/01/22 03:41:52;;;;;;;142.50;74.90;;;;;;;2.92;62.81;95276.75;4922036;29;20039;-85
2021/01/22 03:44:18;;;;;;;152.82;76.22;;;;;;;2.87;62.69;95276.47;4929523;29;20419;-86
2021/01/22 03:46:44;;;;;;;163.23;80.20;;;;;;;2.86;62.57;95256.91;4922300;29;20032;-86
2021/01/22 03:49:10;;;;;;;172.63;86.65;;;;;;;3.03;61.87;95267.03;4967152;28;20074;-85
2021/01/22 03:51:35;;;;;;;174.90;85.97;;;;;;;2.89;62.17;95269.41;4960923;28;20043;-85
2021/01/22 03:54:01;;;;;;;145.23;71.20;;;;;;;2.83;62.81;95267.53;4941739;29;20063;-85
2021/01/22 03:56:26;;;;;;;147.15;71.78;;;;;;;2.88;63.22;95265.22;4942578;29;20035;-85
2021/01/22 03:58:52;;;;;;;162.85;83.82;;;;;;;2.89;62.89;95261.69;4935102;29;20039;-84
2021/01/22 04:01:22;;;;;;;195.00;102.32;;;;;;;2.94;62.90;95259.44;4920962;29;20035;-85
2021/01/22 04:03:50;;;;;;;182.57;98.10;;;;;;;2.80;63.44;95267.88;4929211;29;20070;-85
2021/01/22 04:06:16;;;;;;;211.70;106.40;;;;;;;2.82;63.80;95270.28;4937798;29;20035;-85
2021/01/22 04:08:42;;;;;;;213.25;114.30;;;;;;;2.85;63.35;95265.59;4920315;29;20530;-85
2021/01/22 04:11:08;;;;;;;192.40;101.78;;;;;;;2.84;63.73;95271.69;4943921;29;20027;-84
2021/01/22 04:13:33;;;;;;;161.68;85.15;;;;;;;2.76;64.14;95271.75;4919774;29;20031;-85
2021/01/22 04:15:59;;;;;;;192.35;96.55;;;;;;;2.84;63.37;95278.59;4922419;29;20106;-86
2021/01/22 04:18:25;;;;;;;189.50;90.43;;;;;;;2.83;63.49;95282.16;4937422;29;20066;-85
2021/01/22 04:20:50;;;;;;;161.45;81.65;;;;;;;2.92;62.93;95279.31;4939033;29;20483;-84
2021/01/22 04:23:16;;;;;;;186.77;91.72;;;;;;;2.95;62.98;95286.72;4944964;29;20377;-85
2021/01/22 04:25:41;;;;;;;201.18;102.47;;;;;;;2.94;61.65;95285.09;4946632;29;20035;-86
2021/01/22 04:28:07;;;;;;;201.45;103.32;;;;;;;2.90;62.58;95277.91;4937301;29;20039;-86
2021/01/22 04:30:32;;;;;;;194.57;101.80;;;;;;;2.91;62.47;95269.22;4921307;29;20506;-85
2021/01/22 04:32:58;;;;;;;131.93;68.82;;;;;;;2.95;63.16;95271.28;4938409;29;20035;-86
2021/01/22 04:35:23;;;;;;;175.77;90.10;;;;;;;2.94;63.07;95269.69;4938972;29;20031;-85
2021/01/22 04:37:49;;;;;;;226.88;123.15;;;;;;;3.03;62.25;95249.06;4940655;28;20046;-82
2021/01/22 04:40:14;;;;;;;271.48;135.38;;;;;;;2.98;63.17;95260.66;4943006;29;20024;-82
2021/01/22 04:42:40;;;;;;;297.75;150.30;;;;;;;3.00;63.04;95263.84;4919397;29;20103;-82
2021/01/22 04:45:15;;;;;;;287.92;151.93;;;;;;;3.09;62.51;95258.63;4935215;29;20023;-82
2021/01/22 04:47:41;;;;;;;170.30;87.53;;;;;;;3.11;62.90;95260.09;4928169;29;20624;-84
2021/01/22 04:50:07;;;;;;;237.60;122.72;;;;;;;3.04;62.51;95258.38;4920274;29;20075;-82
2021/01/22 04:52:34;;;;;;;251.02;133.27;;;;;;;3.09;62.10;95266.34;4935083;29;20099;-83
2021/01/22 04:55:01;;;;;;;203.77;99.13;;;;;;;3.07;63.28;95252.88;4937824;29;20073;-83
2021/01/22 04:57:27;;;;;;;187.32;97.15;;;;;;;3.06;63.03;95271.84;4919790;29;20040;-83
2021/01/22 04:59:53;;;;;;;246.60;129.52;;;;;;;3.07;62.06;95263.94;4937705;29;20091;-82
2021/01/22 05:02:18;;;;;;;261.05;137.98;;;;;;;3.08;62.20;95257.84;4936656;29;20059;-83
2021/01/22 05:04:51;;;;;;;323.10;175.25;;;;;;;3.00;61.65;95258.72;4937328;29;20031;-82
2021/01/22 05:07:17;;;;;;;290.92;157.27;;;;;;;2.96;62.01;95264.38;4935979;29;20039;-84
2021/01/22 05:09:43;;;;;;;275.70;147.73;;;;;;;2.97;62.80;95258.28;4921377;29;20043;-84
2021/01/22 05:12:08;;;;;;;299.88;166.50;;;;;;;2.99;61.40;95257.13;4920023;29;20407;-80
2021/01/22 05:14:34;;;;;;;272.58;144.55;;;;;;;2.98;62.42;95250.38;4946171;29;20152;-83
2021/01/22 05:17:06;;;;;;;364.48;202.27;;;;;;;2.99;61.78;95261.47;4938667;29;20028;-85
2021/01/22 05:19:36;;;;;;;324.80;182.38;;;;;;;3.09;62.20;95256.06;4923084;29;20043;-85
2021/01/22 05:22:01;;;;;;;340.27;190.77;;;;;;;3.12;61.76;95250.59;4981697;23;20073;-83
2021/01/22 05:24:28;;;;;;;334.27;188.27;;;;;;;3.04;62.23;95263.50;4966130;28;20046;-80
2021/01/22 05:27:07;;;;;;;322.60;178.40;;;;;;;2.78;62.26;95258.75;4950746;28;20110;-83
2021/01/22 05:29:36;;;;;;;325.60;177.35;;;;;;;2.79;63.08;95263.72;4959179;28;20638;-81
2021/01/22 05:32:03;;;;;;;328.00;172.48;;;;;;;2.85;62.70;95250.19;4975713;28;20031;-83
2021/01/22 05:34:47;;;;;;;413.73;217.20;;;;;;;2.82;65.22;95260.81;4979924;28;20451;-79
2021/01/22 05:37:12;;;;;;;355.40;183.43;;;;;;;2.88;62.66;95260.09;4982299;28;20037;-80
2021/01/22 05:39:38;;;;;;;225.10;112.25;;;;;;;2.93;64.53;95242.41;4972297;28;20035;-81
2021/01/22 05:42:03;;;;;;;356.73;177.98;;;;;;;2.99;62.68;95252.00;4944173;28;20033;-79
2021/01/22 05:44:29;;;;;;;361.30;189.15;;;;;;;2.95;63.44;95255.09;4960631;28;20098;-81
2021/01/22 05:47:10;;;;;;;349.83;178.77;;;;;;;3.04;63.20;95248.88;4954162;28;20089;-82
2021/01/22 05:49:56;;;;;;;294.40;154.27;;;;;;;3.09;63.25;95256.06;4977807;28;20073;-81
2021/01/22 05:52:36;;;;;;;315.77;163.35;;;;;;;2.97;62.06;95230.81;4990101;28;20054;-81
2021/01/22 05:55:37;;;;;;;296.38;155.43;;;;;;;2.99;63.21;95241.72;4957752;28;20043;-82
2021/01/22 05:58:03;;;;;;;318.48;168.52;;;;;;;2.97;63.35;95248.78;4981310;23;20517;-82
2021/01/22 06:00:29;;;;;;;315.35;175.52;;;;;;;3.03;63.78;95249.88;4951001;28;20031;-82
2021/01/22 06:02:54;;;;;;;342.52;196.45;;;;;;;3.01;63.07;95242.34;4954494;28;20031;-82
2021/01/22 06:05:22;;;;;;;308.30;172.65;;;;;;;2.98;62.93;95241.88;4960020;28;20019;-82
2021/01/22 06:08:03;;;;;;;323.10;180.30;;;;;;;2.91;63.53;95233.25;4960359;28;20043;-82
2021/01/22 06:10:29;;;;;;;323.80;171.93;;;;;;;2.80;63.42;95260.19;4961247;28;20038;-82
2021/01/22 06:12:55;;;;;;;312.92;170.00;;;;;;;2.73;64.40;95246.41;4964131;28;20035;-82
2021/01/22 06:15:22;;;;;;;258.23;143.65;;;;;;;2.80;65.24;95252.47;4948582;28;20054;-82
2021/01/22 06:20:23;;;;;;;102.07;56.13;;;;;;;2.91;65.02;95246.09;5200297;23;20054;-83
2021/01/22 06:23:11;;;;;;;116.13;62.97;;;;;;;3.04;64.67;95235.25;4978296;28;20035;-83
2021/01/22 06:25:37;;;;;;;108.75;59.88;;;;;;;3.18;64.80;95239.63;4956580;28;20458;-81
2021/01/22 06:28:04;;;;;;;103.18;56.45;;;;;;;3.25;63.51;95233.59;4941039;28;20047;-83
2021/01/22 06:30:31;;;;;;;102.35;55.08;;;;;;;3.44;63.60;95232.28;4944713;28;20031;-83
2021/01/22 06:33:01;;;;;;;111.72;61.97;;;;;;;3.58;62.53;95236.63;4930689;28;20031;-82
2021/01/22 06:35:31;;;;;;;100.57;53.90;;;;;;;3.79;62.39;95232.53;4947518;28;20023;-83
2021/01/22 06:37:57;;;;;;;134.93;77.15;;;;;;;3.98;62.11;95244.03;4938136;28;20031;-83
2021/01/22 06:40:23;;;;;;;113.82;60.20;;;;;;;4.05;61.15;95227.69;4958887;28;20062;-81
2021/01/22 06:42:48;;;;;;;104.20;56.08;;;;;;;4.19;61.30;95234.56;4975113;28;20035;-82
2021/01/22 06:45:14;;;;;;;137.38;76.53;;;;;;;4.33;59.67;95219.28;4969820;28;20031;-82
2021/01/22 06:47:39;;;;;;;213.70;125.07;;;;;;;4.44;60.66;95229.91;4950432;28;20039;-82
2021/01/22 06:50:26;;;;;;;223.68;126.78;;;;;;;4.64;60.16;95237.81;4953896;28;20422;-82
2021/01/22 06:53:14;;;;;;;357.38;190.35;;;;;;;4.72;59.58;95239.47;4971312;28;20078;-82
2021/01/22 06:55:52;;;;;;;357.73;188.10;;;;;;;4.87;59.64;95219.56;4973192;28;20046;-82
2021/01/22 06:58:32;;;;;;;353.35;181.60;;;;;;;5.03;58.61;95231.38;4975365;28;20039;-82
2021/01/22 07:00:59;;;;;;;271.23;142.75;;;;;;;5.13;58.37;95221.53;4956147;28;20038;-82
2021/01/22 07:03:47;;;;;;;287.00;151.02;;;;;;;5.28;58.51;95227.41;5250801;23;20052;-82
2021/01/22 07:06:31;;;;;;;266.55;139.82;;;;;;;5.40;57.58;95222.53;4932497;29;20108;-83
2021/01/22 07:08:59;;;;;;;244.65;131.65;;;;;;;5.51;57.83;95219.41;4921065;29;20047;-82
2021/01/22 07:11:25;;;;;;;219.50;115.70;;;;;;;5.56;57.33;95224.00;4904416;29;20560;-82
2021/01/22 07:13:53;;;;;;;218.65;114.57;;;;;;;5.64;56.83;95229.00;4912931;29;20033;-82
2021/01/22 07:16:19;;;;;;;298.45;153.35;;;;;;;5.71;57.10;95235.00;4881175;29;20524;-82
2021/01/22 07:19:01;;;;;;;222.90;120.95;;;;;;;5.56;56.98;95239.47;4913830;29;20176;-82
2021/01/22 07:21:38;;;;;;;139.48;74.75;;;;;;;5.37;57.33;95238.38;4913737;29;20064;-81
2021/01/22 07:24:13;;;;;;;121.32;65.55;;;;;;;5.06;58.27;95231.03;4915228;29;20048;-82
2021/01/22 07:26:57;;;;;;;127.10;72.88;;;;;;;5.00;58.55;95240.28;4905193;29;20037;-82
2021/01/22 07:29:27;;;;;;;141.32;76.63;;;;;;;5.01;59.10;95228.97;4911984;29;20605;-81
2021/01/22 07:32:01;;;;;;;123.28;72.65;;;;;;;5.02;58.33;95220.28;4882791;29;20103;-81
2021/01/22 07:35:00;;;;;;;148.88;82.88;;;;;;;5.02;59.41;95234.94;4913144;29;20507;-81
2021/01/22 07:37:46;;;;;;;146.43;77.30;;;;;;;5.10;58.69;95227.09;4933563;29;20035;-81
2021/01/22 07:40:15;;;;;;;133.23;71.28;;;;;;;5.24;58.46;95233.13;4998085;23;20085;-82
2021/01/22 07:42:41;;;;;;;144.80;75.15;;;;;;;5.31;58.08;95232.19;4977640;28;20042;-82
2021/01/22 07:45:12;;;;;;;136.35;78.38;;;;;;;5.57;57.40;95226.41;4972389;28;20094;-82
2021/01/22 07:47:40;;;;;;;171.87;97.30;;;;;;;5.57;58.48;95233.34;4975755;28;20085;-81
2021/01/22 07:50:07;;;;;;;207.63;116.97;;;;;;;5.60;58.15;95222.63;4942109;28;20045;-81
2021/01/22 07:52:42;;;;;;;231.05;127.32;;;;;;;5.61;57.56;95219.06;4961370;28;20561;-82
2021/01/22 07:55:26;;;;;;;214.80;119.22;;;;;;;5.67;56.84;95202.81;4946942;28;20634;-82
2021/01/22 07:58:10;;;;;;;209.60;115.78;;;;;;;5.67;57.64;95205.38;5069980;23;20031;-82
2021/01/22 08:04:25;;;;;;;200.57;104.90;;;;;;;5.78;57.61;95204.84;4850899;29;20131;-83
2021/01/22 08:06:50;;;;;;;224.50;124.55;;;;;;;5.92;57.25;95206.53;4855531;29;20042;-82
2021/01/22 08:12:33;;;;;;;206.63;110.65;;;;;;;6.08;56.79;95189.13;4934208;29;20087;-81
2021/01/22 08:15:00;;;;;;;220.55;122.90;;;;;;;6.20;56.75;95197.91;4956751;29;20044;-83
2021/01/22 08:18:38;;;;;;;;;;;;;;;;;;;;;
2021/01/22 08:21:13;;;;;;;204.18;108.45;;;;;;;6.29;56.36;95202.66;4943187;29;20134;-81
2021/01/22 08:23:48;;;;;;;169.98;94.28;;;;;;;6.37;56.22;95206.06;4934007;29;20118;-82
2021/01/22 08:26:33;;;;;;;;;;;;;;;;;;;;;
2021/01/22 08:29:09;;;;;;;171.65;94.50;;;;;;;6.47;56.06;95196.16;4900389;29;20081;-84
2021/01/22 08:31:55;;;;;;;166.98;92.13;;;;;;;6.54;56.20;95204.72;4883099;29;20265;-81
2021/01/22 08:34:22;;;;;;;155.13;85.50;;;;;;;6.48;55.49;95189.97;4896066;29;20056;-84
2021/01/22 08:36:48;;;;;;;153.15;86.38;;;;;;;6.65;56.15;95190.41;4895015;29;20036;-78
2021/01/22 08:39:16;;;;;;;155.85;89.53;;;;;;;6.79;55.47;95197.16;4889479;29;20052;-85
2021/01/22 08:41:49;;;;;;;162.05;84.90;;;;;;;6.58;54.92;95169.72;4897260;29;20115;-85
2021/01/22 08:44:14;;;;;;;157.35;83.13;;;;;;;6.81;54.51;95192.59;4895685;29;20480;-84
2021/01/22 08:49:48;;;;;;;154.32;85.43;;;;;;;6.69;55.47;95176.09;5027088;23;20466;-85
2021/01/22 08:52:21;;;;;;;162.85;83.60;;;;;;;6.75;55.53;95175.31;5214067;23;20209;-84
2021/01/22 08:54:49;;;;;;;129.60;70.20;;;;;;;6.81;55.07;95156.41;4969204;28;20515;-84
2021/01/22 08:57:15;;;;;;;106.80;58.10;;;;;;;6.89;55.50;95169.16;4955901;28;20031;-84
2021/01/22 08:59:48;;;;;;;102.78;57.33;;;;;;;7.05;54.91;95160.97;4946985;28;20031;-84
2021/01/22 09:02:14;;;;;;;79.10;43.60;;;;;;;7.19;54.50;95175.47;4935638;28;20030;-84
2021/01/22 09:05:21;;;;;;;77.45;39.30;;;;;;;7.50;53.78;95179.19;4935237;28;20109;-83
2021/01/22 09:08:39;;;;;;;57.95;35.95;;;;;;;7.65;53.88;95171.19;4978271;28;20039;-84
2021/01/22 09:11:36;;;;;;;62.05;34.10;;;;;;;7.90;52.76;95173.88;4958291;28;20068;-84
2021/01/22 09:14:01;;;;;;;93.03;50.60;;;;;;;8.11;53.08;95170.97;4959260;28;20034;-84
2021/01/22 09:22:35;;;;;;;183.68;98.47;;;;;;;8.62;51.40;95137.22;4890523;29;20052;-84
2021/01/22 09:25:27;;;;;;;187.23;99.10;;;;;;;8.74;51.04;95139.91;4930274;28;20133;-84
2021/01/22 09:28:24;;;;;;;177.85;91.72;;;;;;;8.94;50.80;95156.06;4992504;23;20054;-84
2021/01/22 09:30:54;;;;;;;188.40;98.57;;;;;;;9.10;50.48;95138.38;4947335;29;20507;-85
2021/01/22 09:33:56;;;;;;;175.30;99.38;;;;;;;9.23;50.10;95144.25;4944695;28;20042;-84
2021/01/22 09:36:22;;;;;;;112.78;62.97;;;;;;;9.21;49.19;95109.16;4949906;29;20495;-84
2021/01/22 09:38:50;;;;;;;76.95;40.00;;;;;;;9.26;49.42;95122.25;4963851;23;20055;-84
2021/01/22 09:41:19;;;;;;;90.43;42.70;;;;;;;9.23;48.80;95112.31;4945744;29;20183;-84
2021/01/22 09:47:12;;;;;;;78.95;41.38;;;;;;;9.15;49.34;95094.44;4958357;29;20109;-84
2021/01/22 09:49:47;;;;;;;108.05;56.80;;;;;;;9.21;49.67;95096.16;4957458;29;20031;-84
2021/01/22 09:52:15;;;;;;;75.55;40.47;;;;;;;9.15;49.43;95100.44;4941929;29;20059;-85
2021/01/22 09:54:41;;;;;;;79.68;39.08;;;;;;;9.30;48.69;95103.47;4941250;29;20039;-84
2021/01/22 09:57:10;;;;;;;88.43;48.17;;;;;;;9.36;49.58;95090.63;4956903;28;20060;-85
2021/01/22 09:59:55;;;;;;;99.25;52.35;;;;;;;9.48;48.93;95089.69;4954036;29;20039;-85
2021/01/22 10:02:21;;;;;;;80.72;45.17;;;;;;;9.59;48.70;95075.94;4957487;28;20028;-85
2021/01/22 10:04:46;;;;;;;69.88;39.70;;;;;;;9.60;47.92;95072.38;4923676;29;20042;-85
2021/01/22 10:07:11;;;;;;;87.15;38.78;;;;;;;9.68;48.31;95075.66;4956327;29;20120;-85
2021/01/22 10:09:37;;;;;;;104.72;56.47;;;;;;;9.76;48.72;95080.53;4925545;29;20035;-85
2021/01/22 10:12:06;;;;;;;103.78;55.42;;;;;;;9.83;48.52;95094.25;4956815;28;20035;-85
2021/01/22 10:14:32;;;;;;;103.80;47.67;;;;;;;9.79;48.15;95080.13;4940691;29;20577;-85
2021/01/22 10:17:00;;;;;;;104.07;60.15;;;;;;;9.68;48.33;95078.25;4923995;28;20023;-85
2021/01/22 10:19:25;;;;;;;136.43;78.50;;;;;;;9.66;48.13;95090.69;4939259;29;20031;-82
2021/01/22 10:21:53;;;;;;;128.05;73.10;;;;;;;9.74;48.10;95077.38;4928006;28;20122;-79
2021/01/22 10:24:19;;;;;;;153.85;91.80;;;;;;;9.77;48.18;95079.56;4962482;29;20070;-79
2021/01/22 10:26:49;;;;;;;172.82;103.93;;;;;;;9.31;49.29;95058.34;4948436;29;20027;-79
2021/01/22 10:29:15;;;;;;;191.75;114.15;;;;;;;9.11;49.66;95067.34;4964384;29;20031;-78
2021/01/22 10:31:40;;;;;;;178.93;109.53;;;;;;;9.42;49.82;95064.59;4963365;28;20421;-79
2021/01/22 10:34:06;;;;;;;186.70;105.15;;;;;;;9.67;48.75;95046.31;4963855;29;20031;-79
2021/01/22 10:36:31;;;;;;;165.20;95.53;;;;;;;9.63;48.74;95043.38;4948188;29;20063;-79
2021/01/22 10:38:57;;;;;;;178.80;106.97;;;;;;;9.74;48.88;95057.38;4931109;29;20043;-79
2021/01/22 10:41:22;;;;;;;176.95;100.53;;;;;;;9.97;48.53;95046.31;4929847;29;20127;-79
2021/01/22 10:43:48;;;;;;;164.30;97.63;;;;;;;10.23;47.25;95052.94;4932223;29;20039;-79
2021/01/22 10:46:14;;;;;;;172.60;99.60;;;;;;;10.44;47.48;95041.22;4952612;29;20027;-79
2021/01/22 10:48:39;;;;;;;162.60;94.15;;;;;;;10.59;46.73;95033.78;4953610;29;20035;-79
2021/01/22 10:51:07;;;;;;;134.73;80.07;;;;;;;10.63;46.13;95024.50;4972013;29;20046;-79
2021/01/22 10:53:33;;;;;;;151.60;92.25;;;;;;;10.66;46.12;95011.03;4962784;29;20031;-79
2021/01/22 10:55:59;;;;;;;148.10;81.97;;;;;;;10.80;45.64;95003.81;4942367;29;20039;-79
2021/01/22 10:58:27;;;;;;;136.30;79.32;;;;;;;10.88;46.08;94998.22;4945698;29;20039;-79
2021/01/22 11:01:19;;;;;;;136.77;76.97;;;;;;;10.98;45.57;94989.84;4959081;29;20490;-79
2021/01/22 11:03:45;;;;;;;162.23;83.85;;;;;;;10.55;46.45;94985.81;4941773;29;20103;-78
2021/01/22 11:06:10;;;;;;;128.70;79.22;;;;;;;9.94;48.25;94984.41;4962306;29;20039;-79
2021/01/22 11:08:35;;;;;;;135.85;77.22;;;;;;;10.03;48.23;94972.66;4962417;29;20028;-79
2021/01/22 11:11:16;;;;;;;142.45;75.90;;;;;;;10.12;48.22;94978.34;4962179;29;20076;-79
2021/01/22 11:13:41;;;;;;;136.95;78.00;;;;;;;9.90;48.14;94973.66;4961532;28;20035;-79
2021/01/22 11:16:07;;;;;;;136.57;80.63;;;;;;;9.29;50.04;94955.78;4963344;29;20054;-79
2021/01/22 11:18:32;;;;;;;141.98;81.97;;;;;;;8.94;51.12;94963.38;4946164;29;20055;-78
2021/01/22 11:20:58;;;;;;;142.77;79.80;;;;;;;9.03;51.22;94956.88;4962994;29;20035;-79
2021/01/22 11:23:23;;;;;;;130.50;79.07;;;;;;;8.95;51.22;94945.03;4946853;29;20035;-79
2021/01/22 11:25:50;;;;;;;161.25;86.63;;;;;;;8.42;53.23;94945.59;4938412;28;20027;-80
2021/01/22 11:28:15;;;;;;;137.63;78.40;;;;;;;8.49;52.96;94949.91;4946723;28;20103;-80
2021/01/22 11:30:41;;;;;;;162.65;82.25;;;;;;;8.44;53.24;94955.72;4972365;28;20058;-80
2021/01/22 11:33:15;;;;;;;132.63;68.97;;;;;;;8.66;52.36;94950.94;4930183;29;20039;-80
2021/01/22 11:35:41;;;;;;;139.35;71.80;;;;;;;8.40;53.11;94941.63;4921432;29;20137;-80
2021/01/22 11:38:06;;;;;;;122.43;68.70;;;;;;;7.95;54.42;94961.72;4946410;29;20035;-79
2021/01/22 11:40:32;;;;;;;123.40;68.93;;;;;;;8.22;54.20;94952.72;4961533;29;20030;-80
2021/01/22 11:42:57;;;;;;;111.40;57.42;;;;;;;8.54;52.79;94944.88;4946521;29;20502;-80
2021/01/22 11:45:23;;;;;;;114.82;58.70;;;;;;;8.45;53.01;94928.00;4928182;29;20028;-80
2021/01/22 11:47:48;;;;;;;96.82;53.58;;;;;;;8.36;53.21;94932.69;4961154;28;20035;-80
2021/01/22 11:50:14;;;;;;;101.38;55.28;;;;;;;8.59;52.70;94919.09;4960826;29;20059;-80
2021/01/22 11:52:52;;;;;;;91.68;52.65;;;;;;;8.51;52.35;94893.47;4927399;29;20070;-79
2021/01/22 11:55:18;;;;;;;106.03;53.83;;;;;;;8.47;52.78;94897.53;4929471;29;20495;-80
2021/01/22 11:57:44;;;;;;;102.22;52.60;;;;;;;8.37;53.07;94891.03;4962696;28;20039;-80